Airfield :
LOGIN :

Register | Disclaimer

   EN    FR    IT 

 










Legend :    VFR   Marginal VFR   IFR   Intensive IFR   Very Intensive IFR
Visi :
Ceiling :
>= 8 km
>= 3000ft
5 to 8 km
1000 to 3000 ft
1500m to 5 km
500 to 1000 ft
800 to 1500m
200 to 500 ft
< 800m
< 200 ft
Symbols :   Thunderstorms  Fog  Heavy snow  Heavy precipitations  Wind > 20 kt
SIGMETs :     Misc.  Thunderstorms  Icing  Turbulence  Mountain Waves  Volcanic Ashes







- Airport Elevation : 751 ft
- IATA code : ENC
- Download approach charts


LFSN - Nancy Essey

CURRENT METAR :
  • 121330Z AUTO 24007KT 200V280 9999 BKN033 BKN039 BKN050 05/M01 Q1012

EXPIRED METARs :
  • 121300Z AUTO 27011G21KT 230V310 9999 BKN033 BKN039 BKN054 06/M02 Q1012
  • 121230Z AUTO 24010KT 190V270 9999 BKN030 06/M01 Q1012
  • 121200Z AUTO 24010KT 200V260 9999 OVC030 06/M01 Q1011
  • 121130Z AUTO 23011KT 200V270 9999 BKN028 BKN033 05/M01 Q1011
  • 121100Z AUTO 24009KT 210V300 9999 BKN028 04/M00 Q1011

Expired Forecast.
No reported NOTAMs for that airfield.



MET'MAP, your aeronautical weather chart ! - Copyright ORBIFLY December 2007 - Disclaimer

ORBIFLY MET'MAP TEAM :

Programming & Development : Alexandra Zaïnal
Concept & Development : Baudouin d'Aumeries
Co-Development & Prog : Marc-Olivier Méhu
Technical & hardware support : Manuel Goepfert

Contact : metmap@orbifly.com




SOURCES & CREDITS :

   NOAA